• Join FlightAware (Why Join?)
  • Login
  • US Flag 
03:11AM EDT


 

Airport Tracker/Info


-or-


 

Live Flight TrackerFlight Track Log ✈ UAL1650 ✈ 09-May-2013 ✈ TJSJ / SJU - KIAH

Flight Track Log - Related Links

Times and Time Zones

All times are in EDT time to prevent confusion due to time zone crossing. See the UAL1650 flight status page for this flight to view local times or setup timezone preferences in your user account.

Time Position Orientation Groundspeed Altitude Reporting Facility
EDT Latitude Longitude Course Direction KTS MPH feet Rate Location/Type
01:41PM 18.4500 -65.9667 271° West 180 207 1,400  Level San Juan Center
01:42PM 18.5167 -65.9833 347° North 240 276 3,100 1,980 Climbing San Juan Center
01:43PM 18.5333 -66.0500 285° West 290 334 5,400 2,400 Climbing San Juan Center
01:44PM 18.5333 -66.1500 270° West 290 334 8,000 2,280 Climbing San Juan Center
01:45PM 18.4476 -66.4528 271° West  Level FlightAware Approximate
01:45PM 18.5333 -66.2333 270° West 300 345 10,000  Level San Juan Center
01:46PM 18.4495 -66.5655 271° West  Level FlightAware Approximate
01:46PM 18.5333 -66.3333 270° West 340 391 10,500  Level San Juan Center
01:47PM 18.4513 -66.6783 271° West  Level FlightAware Approximate
01:47PM 18.5167 -66.4333 260° West 370 426 12,700  Level San Juan Center
01:48PM 18.5167 -66.5333 270° West 370 426 14,700 1,920 Climbing San Juan Center
01:49PM 18.5167 -66.6500 270° West 390 449 16,600 1,740 Climbing San Juan Center
01:50PM 18.5000 -66.7667 261° West 390 449 18,300 1,560 Climbing San Juan Center
01:51PM 18.5000 -66.8667 270° West 390 449 19,800 1,500 Climbing San Juan Center
01:52PM 18.4833 -66.9833 261° West 410 472 21,300 1,380 Climbing San Juan Center
01:53PM 18.4833 -67.1000 270° West 410 472 22,600 1,260 Climbing San Juan Center
01:54PM 18.4833 -67.2333 270° West 430 495 23,900 1,200 Climbing San Juan Center
01:55PM 18.4833 -67.3500 270° West 430 495 25,100 1,140 Climbing San Juan Center
01:56PM 18.4833 -67.4833 270° West 430 495 26,300 1,140 Climbing San Juan Center
01:57PM 18.4667 -67.6333 263° West 430 495 27,400 1,020 Climbing San Juan Center
01:58PM 18.4667 -67.7667 270° West 430 495 28,400 840 Climbing San Juan Center
01:59PM 18.4667 -67.8833 270° West 430 495 29,200  Climbing San Juan Center
02:01PM 18.4667 -68.0014 271° West  Level FlightAware Approximate
02:08PM 18.4821 -68.7522 271° West  Level FlightAware Approximate
02:09PM 18.4839 -68.8595 271° West  Level FlightAware Approximate
02:10PM 18.4853 -68.9668 271° West  Level FlightAware Approximate
02:11PM 18.4867 -69.0741 271° West  Level FlightAware Approximate
02:12PM 18.4879 -69.1814 271° West  Level FlightAware Approximate
02:13PM 18.4891 -69.2887 271° West  Level FlightAware Approximate
02:14PM 18.4903 -69.3960 271° West  Level FlightAware Approximate
02:15PM 18.4914 -69.5033 271° West  Level FlightAware Approximate
02:16PM 18.4925 -69.6106 271° West  Level FlightAware Approximate
02:17PM 18.4934 -69.7179 271° West  Level FlightAware Approximate
02:18PM 18.4944 -69.8252 271° West  Level FlightAware Approximate
02:19PM 18.4952 -69.9325 271° West  Level FlightAware Approximate
02:20PM 18.4960 -70.0398 270° West  Level FlightAware Approximate
02:21PM 18.4967 -70.1471 270° West  Level FlightAware Approximate
02:22PM 18.4974 -70.2544 270° West  Level FlightAware Approximate
02:23PM 18.4981 -70.3617 270° West  Level FlightAware Approximate
02:24PM 18.4986 -70.4690 270° West  Level FlightAware Approximate
02:25PM 18.4991 -70.5763 270° West  Level FlightAware Approximate
02:26PM 18.4995 -70.6836 270° West  Level FlightAware Approximate
02:27PM 18.4999 -70.7909 270° West  Level FlightAware Approximate
02:28PM 18.5002 -70.8982 270° West  Level FlightAware Approximate
02:29PM 18.5005 -71.0055 270° West  Level FlightAware Approximate
02:30PM 18.5007 -71.1128 270° West  Level FlightAware Approximate
02:31PM 18.5008 -71.2202 270° West  Level FlightAware Approximate
02:32PM 18.5009 -71.3275 270° West  Level FlightAware Approximate
02:33PM 18.5009 -71.4348 270° West  Level FlightAware Approximate
02:34PM 18.5008 -71.5421 270° West  Level FlightAware Approximate
02:35PM 18.5007 -71.6494 270° West  Level FlightAware Approximate
02:36PM 18.5005 -71.7567 270° West  Level FlightAware Approximate
02:37PM 18.5003 -71.8640 270° West  Level FlightAware Approximate
02:38PM 18.5000 -71.9713 270° West  Level FlightAware Approximate
02:39PM 18.4985 -72.0786 269° West  Level FlightAware Approximate
02:40PM 18.4967 -72.1859 269° West  Level FlightAware Approximate
02:41PM 18.4949 -72.2932 269° West  Level FlightAware Approximate
02:42PM 18.4930 -72.4005 269° West  Level FlightAware Approximate
02:43PM 18.4910 -72.5078 269° West  Level FlightAware Approximate
02:44PM 18.4890 -72.6150 269° West  Level FlightAware Approximate
02:45PM 18.4869 -72.7223 269° West  Level FlightAware Approximate
02:46PM 18.4848 -72.8296 269° West  Level FlightAware Approximate
02:47PM 18.4783 -72.9365 262° West  Level FlightAware Approximate
02:48PM 18.4636 -73.0426 262° West  Level FlightAware Approximate
02:49PM 18.4488 -73.1488 262° West  Level FlightAware Approximate
02:50PM 18.4340 -73.2549 262° West  Level FlightAware Approximate
02:51PM 18.4191 -73.3610 262° West  Level FlightAware Approximate
02:52PM 18.4041 -73.4671 262° West  Level FlightAware Approximate
02:53PM 18.3891 -73.5732 262° West  Level FlightAware Approximate
02:54PM 18.3741 -73.6792 262° West  Level FlightAware Approximate
02:55PM 18.3589 -73.7853 261° West  Level FlightAware Approximate
02:56PM 18.3438 -73.8913 261° West  Level FlightAware Approximate
02:57PM 18.3285 -73.9973 261° West  Level FlightAware Approximate
02:58PM 18.3132 -74.1033 261° West  Level FlightAware Approximate
02:59PM 18.2979 -74.2092 261° West  Level FlightAware Approximate
03:00PM 18.2824 -74.3152 261° West  Level FlightAware Approximate
03:01PM 18.2670 -74.4211 261° West  Level FlightAware Approximate
03:02PM 18.2514 -74.5270 261° West  Level FlightAware Approximate
03:03PM 18.2359 -74.6329 261° West  Level FlightAware Approximate
03:04PM 18.2414 -74.7394 275° West  Level FlightAware Approximate
03:05PM 18.2509 -74.8461 275° West  Level FlightAware Approximate
03:06PM 18.2604 -74.9528 275° West  Level FlightAware Approximate
03:07PM 18.2698 -75.0595 275° West  Level FlightAware Approximate
03:08PM 18.2792 -75.1662 275° West  Level FlightAware Approximate
03:09PM 18.2885 -75.2729 275° West  Level FlightAware Approximate
03:10PM 18.2978 -75.3797 275° West  Level FlightAware Approximate
03:11PM 18.3070 -75.4864 275° West  Level FlightAware Approximate
03:12PM 18.3161 -75.5932 275° West  Level FlightAware Approximate
03:13PM 18.3252 -75.6999 275° West  Level FlightAware Approximate
03:14PM 18.3342 -75.8067 275° West  Level FlightAware Approximate
03:15PM 18.3432 -75.9135 275° West  Level FlightAware Approximate
03:16PM 18.3521 -76.0203 275° West  Level FlightAware Approximate
03:17PM 18.3609 -76.1271 275° West  Level FlightAware Approximate
03:18PM 18.3697 -76.2339 275° West  Level FlightAware Approximate
03:19PM 18.3784 -76.3408 275° West  Level FlightAware Approximate
03:20PM 18.3871 -76.4476 275° West  Level FlightAware Approximate
03:21PM 18.3957 -76.5545 275° West  Level FlightAware Approximate
03:22PM 18.4042 -76.6614 275° West  Level FlightAware Approximate
03:23PM 18.4127 -76.7682 275° West  Level FlightAware Approximate
03:24PM 18.4211 -76.8751 275° West  Level FlightAware Approximate
03:25PM 18.4295 -76.9820 275° West  Level FlightAware Approximate
03:26PM 18.4378 -77.0889 275° West  Level FlightAware Approximate
03:27PM 18.4460 -77.1959 275° West  Level FlightAware Approximate
03:28PM 18.4542 -77.3028 275° West  Level FlightAware Approximate
03:29PM 18.4623 -77.4097 275° West  Level FlightAware Approximate
03:30PM 18.4704 -77.5167 275° West  Level FlightAware Approximate
03:31PM 18.4784 -77.6236 275° West  Level FlightAware Approximate
03:32PM 18.4863 -77.7306 274° West  Level FlightAware Approximate
03:33PM 18.4942 -77.8376 274° West  Level FlightAware Approximate
03:34PM 18.5063 -77.9439 284° West  Level FlightAware Approximate
03:35PM 18.5303 -78.0482 284° West  Level FlightAware Approximate
03:36PM 18.5542 -78.1525 284° West  Level FlightAware Approximate
03:37PM 18.5781 -78.2568 284° West  Level FlightAware Approximate
03:38PM 18.6019 -78.3612 284° West  Level FlightAware Approximate
03:39PM 18.6257 -78.4656 284° West  Level FlightAware Approximate
03:40PM 18.6494 -78.5701 283° West  Level FlightAware Approximate
03:41PM 18.6730 -78.6745 283° West  Level FlightAware Approximate
03:42PM 18.6966 -78.7790 283° West  Level FlightAware Approximate
03:43PM 18.7205 -78.8853 283° West  Level FlightAware Approximate
03:44PM 18.7444 -78.9915 283° West  Level FlightAware Approximate
03:45PM 18.7914 -79.0877 302° West  Level FlightAware Approximate
03:46PM 18.8456 -79.1808 302° West  Level FlightAware Approximate
03:47PM 18.8997 -79.2740 302° West  Level FlightAware Approximate
03:48PM 18.9537 -79.3672 302° West  Level FlightAware Approximate
03:49PM 19.0077 -79.4605 301° West  Level FlightAware Approximate
03:50PM 19.0617 -79.5538 301° West  Level FlightAware Approximate
03:51PM 19.1156 -79.6472 301° West  Level FlightAware Approximate
03:52PM 19.1695 -79.7407 301° West  Level FlightAware Approximate
03:53PM 19.2233 -79.8342 301° West  Level FlightAware Approximate
03:54PM 19.2771 -79.9278 301° West  Level FlightAware Approximate
03:55PM 19.3309 -80.0214 301° West  Level FlightAware Approximate
03:56PM 19.3845 -80.1151 301° West  Level FlightAware Approximate
03:57PM 19.4382 -80.2089 301° West  Level FlightAware Approximate
03:58PM 19.4918 -80.3027 301° West  Level FlightAware Approximate
03:59PM 19.5453 -80.3966 301° West  Level FlightAware Approximate
04:00PM 19.5988 -80.4906 301° West  Level FlightAware Approximate
04:01PM 19.6522 -80.5846 301° West  Level FlightAware Approximate
04:02PM 19.7056 -80.6787 301° West  Level FlightAware Approximate
04:03PM 19.7590 -80.7728 301° West  Level FlightAware Approximate
04:04PM 19.8123 -80.8670 301° West  Level FlightAware Approximate
04:05PM 19.8655 -80.9613 301° West  Level FlightAware Approximate
04:06PM 19.9187 -81.0556 301° West  Level FlightAware Approximate
04:07PM 19.9719 -81.1500 301° West  Level FlightAware Approximate
04:08PM 20.0250 -81.2445 301° West  Level FlightAware Approximate
04:09PM 20.0780 -81.3390 301° West  Level FlightAware Approximate
04:10PM 20.1310 -81.4336 301° West  Level FlightAware Approximate
04:11PM 20.1839 -81.5283 301° West  Level FlightAware Approximate
04:12PM 20.2367 -81.6230 301° West  Level FlightAware Approximate
04:13PM 20.2896 -81.7178 301° West  Level FlightAware Approximate
04:14PM 20.3423 -81.8127 301° West  Level FlightAware Approximate
04:15PM 20.3950 -81.9076 301° West  Level FlightAware Approximate
04:16PM 20.4477 -82.0026 301° West  Level FlightAware Approximate
04:17PM 20.5003 -82.0976 301° West  Level FlightAware Approximate
04:18PM 20.5529 -82.1928 301° West  Level FlightAware Approximate
04:19PM 20.6054 -82.2880 301° West  Level FlightAware Approximate
04:20PM 20.6578 -82.3832 300° West  Level FlightAware Approximate
04:21PM 20.7102 -82.4785 300° West  Level FlightAware Approximate
04:22PM 20.7626 -82.5739 300° West  Level FlightAware Approximate
04:22PM 21.3560 -83.8940 300° West 369 425 34,000  Level FlightAware
04:23PM 20.8149 -82.6694 300° West  Level FlightAware Approximate
04:23PM 21.3890 -83.9550 300° West 369 425 34,000  Level FlightAware
04:23PM 21.4230 -84.0220 299° West 369 425 34,000  Level FlightAware
04:24PM 21.4510 -84.0760 299° West 369 425 34,000  Level FlightAware
04:25PM 21.4960 -84.1550 301° West 365 420 34,000  Level FlightAware
04:25PM 21.5230 -84.2060 300° West 365 420 34,000  Level FlightAware
04:26PM 21.5570 -84.2730 299° West 365 420 34,000  Level FlightAware
04:27PM 21.6010 -84.3520 301° West 365 420 34,000  Level FlightAware
04:28PM 21.6390 -84.4230 300° West 366 421 34,000  Level FlightAware
04:28PM 21.6710 -84.4830 300° West 369 425 34,000  Level FlightAware
04:29PM 21.7100 -84.5570 300° West 370 426 34,000  Level FlightAware
04:30PM 21.7440 -84.6210 300° West 371 427 34,000  Level FlightAware
04:30PM 21.7790 -84.6870 300° West 373 429 34,000  Level FlightAware
04:31PM 21.8170 -84.7580 300° West 374 430 34,000  Level FlightAware
04:32PM 21.8510 -84.8240 299° West 374 430 34,000  Level FlightAware
04:32PM 21.8860 -84.8890 300° West 375 432 34,000  Level FlightAware
04:33PM 21.9250 -84.9640 299° West 375 432 34,000  Level FlightAware
04:34PM 21.9600 -85.0280 301° West 376 433 34,000  Level FlightAware
04:35PM 21.9980 -85.1010 299° West 375 432 34,000  Level FlightAware
04:35PM 22.0320 -85.1650 300° West 375 432 34,000  Level FlightAware
04:36PM 22.0660 -85.2290 300° West 375 432 34,000  Level FlightAware
04:37PM 22.1060 -85.3050 300° West 376 433 34,000  Level FlightAware
04:37PM 22.1410 -85.3710 300° West 375 432 34,000  Level FlightAware
04:38PM 22.1740 -85.4340 300° West 374 430 34,000  Level FlightAware
04:39PM 22.2130 -85.5070 300° West 373 429 34,000  Level FlightAware
04:39PM 22.2470 -85.5720 299° West 372 428 34,000  Level FlightAware
04:40PM 22.2850 -85.6450 299° West 371 427 34,000  Level FlightAware
04:41PM 22.3190 -85.7090 300° West 370 426 34,000  Level FlightAware
04:42PM 22.3520 -85.7740 299° West 369 425 34,000  Level FlightAware
04:42PM 22.3900 -85.8450 300° West 370 426 34,000  Level FlightAware
04:43PM 22.4230 -85.9090 299° West 371 427 34,000  Level FlightAware
04:44PM 22.4570 -85.9740 300° West 372 428 34,000  Level FlightAware
04:44PM 22.4850 -86.0220 302° West 374 430 34,000  Level FlightAware
04:45PM 22.5240 -86.0830 305° West 375 432 34,000  Level FlightAware
04:46PM 22.5700 -86.1530 305° West 375 432 34,000  Level FlightAware
04:46PM 22.6090 -86.2150 304° West 377 434 34,000  Level FlightAware
04:47PM 22.6530 -86.2840 305° West 377 434 34,000  Level FlightAware
04:48PM 22.6930 -86.3450 305° West 376 433 34,000  Level FlightAware
04:48PM 22.7320 -86.4070 304° West 375 432 34,000  Level FlightAware
04:49PM 22.7760 -86.4790 304° West 375 432 34,000  Level FlightAware
04:50PM 22.8110 -86.5460 300° West 374 430 34,000  Level FlightAware
04:50PM 22.8480 -86.6180 299° West 372 428 34,000  Level FlightAware
04:51PM 22.8850 -86.6910 299° West 371 427 34,000  Level FlightAware
04:52PM 22.9180 -86.7540 300° West 371 427 34,000  Level FlightAware
04:53PM 22.9510 -86.8190 299° West 369 425 34,000  Level FlightAware
04:53PM 22.9900 -86.8940 299° West 368 423 34,000  Level FlightAware
04:54PM 23.0220 -86.9580 299° West 369 425 34,000  Level FlightAware
04:55PM 23.0610 -87.0320 300° West 370 426 34,000  Level FlightAware
04:55PM 23.0940 -87.0970 299° West 370 426 34,000  Level FlightAware
04:56PM 23.1300 -87.1690 299° West 371 427 34,000  Level FlightAware
04:57PM 23.1630 -87.2340 299° West 372 428 34,000  Level FlightAware
04:57PM 23.1960 -87.2980 299° West 371 427 34,000  Level FlightAware
04:58PM 23.2340 -87.3740 299° West 370 426 34,000  Level FlightAware
04:59PM 23.2680 -87.4390 300° West 370 426 34,000  Level FlightAware
05:00PM 23.3000 -87.5030 299° West 369 425 34,000  Level FlightAware
05:00PM 23.3280 -87.5590 299° West 369 425 34,000  Level FlightAware
05:01PM 23.3700 -87.6410 299° West 368 423 34,000  Level FlightAware
05:02PM 23.4070 -87.7150 299° West 370 426 34,000  Level FlightAware
05:02PM 23.4360 -87.7720 299° West 370 426 34,000  Level FlightAware
05:03PM 23.4730 -87.8440 299° West 370 426 34,000  Level FlightAware
05:04PM 23.5100 -87.9170 299° West 369 425 34,000  Level FlightAware
05:04PM 23.5440 -87.9820 300° West 369 425 34,000  Level FlightAware
05:05PM 23.5830 -88.0570 300° West 368 423 34,000  Level FlightAware
05:06PM 23.6150 -88.1200 299° West 368 423 34,000  Level FlightAware
05:06PM 23.6420 -88.1720 300° West 368 423 34,000  Level FlightAware
05:07PM 23.6700 -88.2270 299° West 368 423 34,000  Level FlightAware
05:08PM 23.7190 -88.3230 299° West 368 423 34,000  Level FlightAware
05:09PM 23.7520 -88.3880 299° West 367 422 34,000  Level FlightAware
05:09PM 23.7910 -88.4630 300° West 369 425 34,000  Level FlightAware
05:10PM 23.8230 -88.5270 299° West 369 425 34,000  Level FlightAware
05:11PM 23.8640 -88.6090 299° West 369 425 34,000  Level FlightAware
05:12PM 23.8920 -88.6650 299° West 369 425 34,000  Level FlightAware
05:12PM 23.9390 -88.7540 300° West 369 425 34,000  Level FlightAware
05:13PM 23.9680 -88.8130 298° West 369 425 34,000  Level FlightAware
05:14PM 24.0020 -88.8830 298° West 369 425 34,000  Level FlightAware
05:15PM 24.0290 -88.9400 297° West 369 425 34,000  Level FlightAware
05:15PM 24.0820 -89.0400 300° West 367 422 34,000  Level FlightAware
05:16PM 24.1160 -89.1090 298° West 367 422 34,000  Level FlightAware
05:17PM 24.1430 -89.1650 298° West 367 422 34,000  Level FlightAware
05:18PM 24.1700 -89.2210 298° West 367 422 34,000  Level FlightAware
05:18PM 24.1970 -89.2770 298° West 367 422 34,000  Level FlightAware
05:19PM 24.2240 -89.3330 298° West 367 422 34,000  Level FlightAware
05:20PM 24.2580 -89.4030 298° West 367 422 34,000  Level FlightAware
05:20PM 24.2850 -89.4590 298° West 367 422 34,000  Level FlightAware
05:21PM 24.3130 -89.5150 299° West 367 422 34,000  Level FlightAware
05:22PM 24.3400 -89.5710 298° West 367 422 34,000  Level FlightAware
05:22PM 24.3670 -89.6260 298° West 367 422 34,000  Level FlightAware
05:23PM 24.4010 -89.6960 298° West 367 422 34,000  Level FlightAware
05:24PM 24.4280 -89.7520 298° West 367 422 34,000  Level FlightAware
05:25PM 24.4550 -89.8080 298° West 367 422 34,000 60 Level FlightAware
05:27PM 24.6200 -89.9398 326° Northwest  Level FlightAware Approximate
05:28PM 24.7047 -90.0033 326° Northwest  Level FlightAware Approximate
05:29PM 24.7893 -90.0669 326° Northwest  Level FlightAware Approximate
05:30PM 24.8736 -90.1309 325° Northwest  Level FlightAware Approximate
05:31PM 24.9615 -90.2021 324° Northwest  Level FlightAware Approximate
05:32PM 25.0497 -90.2730 324° Northwest  Level FlightAware Approximate
05:33PM 25.1380 -90.3437 324° Northwest  Level FlightAware Approximate
05:34PM 25.2272 -90.4130 325° Northwest  Level FlightAware Approximate
05:35PM 25.3169 -90.4818 325° Northwest  Level FlightAware Approximate
05:36PM 25.4065 -90.5506 325° Northwest  Level FlightAware Approximate
05:37PM 25.4960 -90.6195 325° Northwest  Level FlightAware Approximate
05:38PM 25.5856 -90.6886 325° Northwest  Level FlightAware Approximate
05:39PM 25.6751 -90.7577 325° Northwest  Level FlightAware Approximate
05:40PM 25.7645 -90.8270 325° Northwest  Level FlightAware Approximate
05:41PM 25.8540 -90.8963 325° Northwest  Level FlightAware Approximate
05:42PM 25.9434 -90.9658 325° Northwest  Level FlightAware Approximate
05:43PM 26.0328 -91.0353 325° Northwest  Level FlightAware Approximate
05:44PM 26.1221 -91.1050 325° Northwest  Level FlightAware Approximate
05:45PM 26.2114 -91.1748 325° Northwest  Level FlightAware Approximate
05:46PM 26.3007 -91.2447 325° Northwest  Level FlightAware Approximate
05:47PM 26.3899 -91.3148 325° Northwest  Level FlightAware Approximate
05:48PM 26.4789 -91.3851 325° Northwest  Level FlightAware Approximate
05:49PM 26.5679 -91.4556 325° Northwest  Level FlightAware Approximate
05:50PM 26.6569 -91.5262 325° Northwest  Level FlightAware Approximate
05:51PM 26.7458 -91.5969 325° Northwest  Level FlightAware Approximate
05:51PM 26.7956 -91.6450 324° Northwest 332 382 35,900  Level Houston Center
05:52PM 26.8347 -91.6677 325° Northwest  Level FlightAware Approximate
05:52PM 26.8917 -91.7217 325° Northwest 362 417 35,900  Level Houston Center
05:53PM 26.9236 -91.7386 325° Northwest  Level FlightAware Approximate
05:53PM 26.9739 -91.7881 324° Northwest 365 420 36,000  Level Houston Center
05:54PM 27.0124 -91.8096 325° Northwest  Level FlightAware Approximate
05:54PM 27.0550 -91.8542 324° Northwest 362 417 36,000  Level Houston Center
05:55PM 27.1012 -91.8808 325° Northwest  Level FlightAware Approximate
05:55PM 27.1381 -91.9200 325° Northwest 364 419 35,800  Level Houston Center
05:56PM 27.1897 -91.9524 324° Northwest  Level FlightAware Approximate
05:57PM 27.2775 -92.0252 324° Northwest  Level FlightAware Approximate
05:57PM 27.2350 -91.9992 324° Northwest 360 414 34,500  Level Houston Center
05:58PM 27.3181 -92.0639 325° Northwest 362 417 33,900 -300 Descending Houston Center
05:59PM 27.4025 -92.1331 324° Northwest 370 426 34,000  Climbing Houston Center
06:00PM 27.4861 -92.2014 324° Northwest 372 428 34,000  Level Houston Center
06:01PM 27.5703 -92.2694 324° Northwest 373 429 34,000  Level Houston Center
06:02PM 27.6553 -92.3386 324° Northwest 376 433 34,000  Level Houston Center
06:03PM 27.7578 -92.4225 324° Northwest 378 435 34,000  Level Houston Center
06:04PM 27.8433 -92.4908 325° Northwest 379 436 34,000 -420 Level Houston Center
06:05PM 27.9294 -92.5608 324° Northwest 380 437 33,200 -840 Descending Houston Center
06:06PM 28.0175 -92.6389 322° Northwest 394 453 32,300 -660 Descending Houston Center
06:07PM 28.1097 -92.7133 325° Northwest 410 472 31,900 -180 Descending Houston Center
06:08PM 28.2211 -92.8050 324° Northwest 412 474 32,000  Climbing Houston Center
06:09PM 28.3142 -92.8822 324° Northwest 414 476 31,900  Descending Houston Center
06:10PM 28.4081 -92.9611 324° Northwest 415 478 32,000  Climbing Houston Center
06:16PM 28.9682 -93.4274 324° Northwest 407 468 32,000  Level FlightAware ADS-B
06:16PM 29.0147 -93.4666 324° Northwest 407 468 32,000  Level FlightAware ADS-B
06:17PM 29.0606 -93.5052 324° Northwest 407 468 32,000 -240 Level FlightAware ADS-B
06:17PM 29.1075 -93.5448 324° Northwest 407 468 31,800 -720 Descending FlightAware ADS-B
06:18PM 29.1536 -93.5837 324° Northwest 410 472 31,300 -1,920 Descending FlightAware ADS-B
06:18PM 29.1991 -93.6223 323° Northwest 410 472 29,900 -3,000 Descending FlightAware ADS-B
06:19PM 29.2466 -93.6628 323° Northwest 415 478 28,300 -2,820 Descending FlightAware ADS-B
06:19PM 29.2931 -93.7021 324° Northwest 412 474 27,000 -2,460 Descending FlightAware ADS-B
06:20PM 29.3400 -93.7419 324° Northwest 407 468 25,800 -2,460 Descending FlightAware ADS-B
06:21PM 29.3873 -93.7823 323° Northwest 403 464 24,500 -2,460 Descending FlightAware ADS-B
06:21PM 29.4327 -93.8207 324° Northwest 399 459 23,300 -2,400 Descending FlightAware ADS-B
06:22PM 29.4779 -93.8593 323° Northwest 392 451 22,100 -2,400 Descending FlightAware ADS-B
06:22PM 29.4914 -93.8715 322° Northwest 387 445 21,700 -2,400 Descending FlightAware ADS-B
06:22PM 29.4978 -93.8789 315° West 381 438 21,500 -2,520 Descending FlightAware ADS-B
06:22PM 29.5056 -93.8909 307° West 374 430 21,200 -2,520 Descending FlightAware ADS-B
06:22PM 29.5093 -93.8983 300° West 369 425 21,000 -2,040 Descending FlightAware ADS-B
06:22PM 29.5125 -93.9061 295° West 365 420 20,900 -2,040 Descending FlightAware ADS-B
06:22PM 29.5152 -93.9147 290° West 362 417 20,700 -2,700 Descending FlightAware ADS-B
06:22PM 29.5172 -93.9230 285° West 359 413 20,500 -2,700 Descending FlightAware ADS-B
06:22PM 29.5185 -93.9318 280° West 356 410 20,300 -2,040 Descending FlightAware ADS-B
06:22PM 29.5193 -93.9453 274° West 352 405 20,100 -2,040 Descending FlightAware ADS-B
06:23PM 29.5213 -94.0040 272° West 352 405 19,000 -2,220 Descending FlightAware ADS-B
06:23PM 29.5235 -94.0637 272° West 370 426 17,800 -2,340 Descending FlightAware ADS-B
06:24PM 29.5258 -94.1235 273° West 364 419 16,600 -2,280 Descending FlightAware ADS-B
06:24PM 29.5279 -94.1819 272° West 360 414 15,500 -2,280 Descending FlightAware ADS-B
06:25PM 29.5298 -94.2398 272° West 354 407 14,300 -2,220 Descending FlightAware ADS-B
06:25PM 29.5318 -94.2966 272° West 349 402 13,300 -1,620 Descending FlightAware ADS-B
06:26PM 29.5330 -94.3229 273° West 338 389 13,100 -1,020 Descending FlightAware ADS-B
06:26PM 29.5353 -94.3387 280° West 335 386 12,900 -720 Descending FlightAware ADS-B
06:26PM 29.5385 -94.3522 285° West 328 377 12,900  Level FlightAware ADS-B
06:26PM 29.5442 -94.3693 291° West 322 371 12,900 -600 Level FlightAware ADS-B
06:27PM 29.5632 -94.4139 296° West 305 351 12,500 -1,140 Descending FlightAware ADS-B
06:27PM 29.5825 -94.4594 296° West 306 352 11,800 -1,380 Descending FlightAware ADS-B
06:28PM 29.6012 -94.5031 296° West 301 346 11,100 -1,320 Descending FlightAware ADS-B
06:28PM 29.6189 -94.5447 296° West 293 337 10,500 -1,440 Descending FlightAware ADS-B
06:28PM 29.6284 -94.5669 296° West 296 341 10,000 -1,800 Descending FlightAware ADS-B
06:29PM 29.6373 -94.5877 296° West 298 343 9,600 -1,620 Descending FlightAware ADS-B
06:29PM 29.6466 -94.6096 296° West 301 346 9,200 -1,800 Descending FlightAware ADS-B
06:29PM 29.6561 -94.6319 296° West 305 351 8,700 -1,440 Descending FlightAware ADS-B
06:29PM 29.6652 -94.6536 296° West 297 342 8,500 -780 Descending FlightAware ADS-B
06:30PM 29.6743 -94.6750 296° West 291 335 8,300 -1,020 Descending FlightAware ADS-B
06:30PM 29.6831 -94.6958 296° West 288 331 8,000 -1,440 Descending FlightAware ADS-B
06:30PM 29.6921 -94.7169 296° West 286 329 7,600 -1,620 Descending FlightAware ADS-B
06:30PM 29.7010 -94.7377 296° West 286 329 7,200 -1,260 Descending FlightAware ADS-B
06:31PM 29.7091 -94.7568 296° West 282 325 7,000 -420 Descending FlightAware ADS-B
06:31PM 29.7175 -94.7765 296° West 269 310 7,000  Level FlightAware ADS-B
06:31PM 29.7256 -94.7955 296° West 255 293 7,000  Level FlightAware ADS-B
06:31PM 29.7333 -94.8137 296° West 245 282 7,000  Level FlightAware ADS-B
06:32PM 29.7381 -94.8253 295° West 242 278 7,000  Level FlightAware ADS-B
06:32PM 29.7459 -94.8438 296° West 241 277 7,000  Level FlightAware ADS-B
06:32PM 29.7533 -94.8612 296° West 240 276 7,000  Level FlightAware ADS-B
06:32PM 29.7575 -94.8716 295° West 240 276 7,000  Level FlightAware ADS-B
06:33PM 29.7647 -94.8889 296° West 240 276 7,000  Level FlightAware ADS-B
06:33PM 29.7706 -94.9030 296° West 241 277 7,000  Level FlightAware ADS-B
06:33PM 29.7780 -94.9202 296° West 240 276 7,000  Level FlightAware ADS-B
06:33PM 29.7859 -94.9385 296° West 241 277 7,000  Level FlightAware ADS-B
06:34PM 29.7932 -94.9559 296° West 239 275 7,000  Level FlightAware ADS-B
06:34PM 29.8006 -94.9732 296° West 240 276 7,000  Level FlightAware ADS-B
06:34PM 29.8079 -94.9906 296° West 239 275 7,000  Level FlightAware ADS-B
06:34PM 29.8152 -95.0078 296° West 240 276 7,000  Level FlightAware ADS-B
06:35PM 29.8228 -95.0257 296° West 241 277 7,000  Level FlightAware ADS-B
06:35PM 29.8301 -95.0432 296° West 241 277 7,000  Level FlightAware ADS-B
06:35PM 29.8365 -95.0583 296° West 240 276 7,000  Level FlightAware ADS-B
06:35PM 29.8394 -95.0637 302° West 243 280 7,000  Level FlightAware ADS-B
06:35PM 29.8415 -95.0670 306° West 246 283 7,000  Level FlightAware ADS-B
06:35PM 29.8449 -95.0717 310° West 249 287 7,000  Level FlightAware ADS-B
06:35PM 29.8556 -95.0858 311° West 249 287 7,000  Level FlightAware ADS-B
06:36PM 29.8672 -95.1011 311° West 247 284 7,000  Level FlightAware ADS-B
06:36PM 29.8789 -95.1164 311° West 249 287 7,000 -600 Level FlightAware ADS-B
06:36PM 29.8904 -95.1314 311° West 249 287 6,700 -1,020 Descending FlightAware ADS-B
06:37PM 29.9020 -95.1467 311° West 248 285 6,500 -1,020 Descending FlightAware ADS-B
06:37PM 29.9135 -95.1619 311° West 245 282 6,200 -1,080 Descending FlightAware ADS-B
06:37PM 29.9235 -95.1754 311° West 246 283 6,000 -420 Descending FlightAware ADS-B
06:37PM 29.9346 -95.1904 310° West 245 282 6,000  Level FlightAware ADS-B
06:38PM 29.9468 -95.2068 311° West 245 282 6,000  Level FlightAware ADS-B
06:38PM 29.9567 -95.2201 311° West 247 284 6,000  Level FlightAware ADS-B
06:38PM 29.9617 -95.2265 312° West 248 285 6,000  Level FlightAware ADS-B
06:38PM 29.9659 -95.2308 318° Northwest 251 289 6,000  Level FlightAware ADS-B
06:38PM 29.9706 -95.2349 323° Northwest 253 291 6,000  Level FlightAware ADS-B
06:38PM 29.9862 -95.2476 325° Northwest 255 293 6,000  Level FlightAware ADS-B
06:39PM 30.0009 -95.2595 325° Northwest 254 292 6,000  Level FlightAware ADS-B
06:39PM 30.0154 -95.2713 325° Northwest 252 290 6,000  Level FlightAware ADS-B
06:39PM 30.0306 -95.2835 325° Northwest 253 291 6,000  Level FlightAware ADS-B
06:39PM 30.0455 -95.2955 325° Northwest 253 291 6,000  Level FlightAware ADS-B
06:40PM 30.0604 -95.3077 325° Northwest 252 290 6,000  Level FlightAware ADS-B
06:40PM 30.0684 -95.3143 324° Northwest 251 289 6,000  Level FlightAware ADS-B
06:40PM 30.0713 -95.3173 318° Northwest 247 284 6,000  Level FlightAware ADS-B
06:40PM 30.0739 -95.3205 313° West 244 281 6,000  Level FlightAware ADS-B
06:40PM 30.0767 -95.3249 306° West 240 276 6,000  Level FlightAware ADS-B
06:40PM 30.0786 -95.3287 300° West 237 273 6,000  Level FlightAware ADS-B
06:40PM 30.0816 -95.3370 293° West 231 266 6,000 -480 Level FlightAware ADS-B
06:40PM 30.0832 -95.3443 284° West 226 260 5,900 -720 Descending FlightAware ADS-B
06:40PM 30.0837 -95.3479 279° West 224 258 5,900 -780 Level FlightAware ADS-B
06:40PM 30.0842 -95.3530 276° West 221 254 5,800 -1,500 Descending FlightAware ADS-B
06:41PM 30.0850 -95.3716 273° West 221 254 5,400 -1,140 Descending FlightAware ADS-B
06:41PM 30.0857 -95.3860 273° West 221 254 5,300 -900 Descending FlightAware ADS-B
06:41PM 30.0866 -95.4041 273° West 223 257 5,000 -1,200 Descending FlightAware ADS-B
06:41PM 30.0876 -95.4221 274° West 223 257 4,700 -1,200 Descending FlightAware ADS-B
06:41PM 30.0882 -95.4343 273° West 225 259 4,500 -1,080 Descending FlightAware ADS-B
06:42PM 30.0894 -95.4565 274° West 224 258 4,200 -900 Descending FlightAware ADS-B
06:42PM 30.0904 -95.4744 274° West 223 257 4,000 -480 Descending FlightAware ADS-B
06:42PM 30.0912 -95.4892 274° West 223 257 4,000  Level FlightAware ADS-B
06:42PM 30.0922 -95.5086 273° West 225 259 4,000 -480 Level FlightAware ADS-B
06:43PM 30.0930 -95.5233 274° West 225 259 3,800 -1,200 Descending FlightAware ADS-B
06:43PM 30.0939 -95.5387 274° West 228 262 3,500 -1,320 Descending FlightAware ADS-B
06:43PM 30.0948 -95.5574 273° West 233 268 3,200 -1,020 Descending FlightAware ADS-B
06:43PM 30.0957 -95.5757 273° West 234 269 3,000 -420 Descending FlightAware ADS-B
06:44PM 30.0970 -95.5952 274° West 234 269 3,000  Level FlightAware ADS-B
06:44PM 30.0982 -95.6146 274° West 235 270 3,000  Level FlightAware ADS-B
06:44PM 30.0990 -95.6301 273° West 232 267 3,000  Level FlightAware ADS-B
06:44PM 30.0998 -95.6489 273° West 228 262 3,000  Level FlightAware ADS-B
06:45PM 30.1003 -95.6588 273° West 227 261 3,000  Level FlightAware ADS-B
06:45PM 30.1002 -95.6628 268° West 226 260 3,000  Level FlightAware ADS-B
06:45PM 30.0999 -95.6677 266° West 224 258 3,000  Level FlightAware ADS-B
06:45PM 30.0982 -95.6856 264° West 222 255 3,000  Level FlightAware ADS-B
06:45PM 30.0969 -95.6989 264° West 225 259 3,000  Level FlightAware ADS-B
06:45PM 30.0956 -95.7114 263° West 221 254 3,000  Level FlightAware ADS-B
06:45PM 30.0946 -95.7162 256° West 220 253 3,000  Level FlightAware ADS-B
06:45PM 30.0931 -95.7206 248° West 217 250 3,000  Level FlightAware ADS-B
06:45PM 30.0916 -95.7236 240° Southwest 215 247 3,000  Level FlightAware ADS-B
06:45PM 30.0899 -95.7265 236° Southwest 215 247 3,000  Level FlightAware ADS-B
06:46PM 30.0874 -95.7300 230° Southwest 213 245 3,000  Level FlightAware ADS-B
06:46PM 30.0783 -95.7422 229° Southwest 209 241 3,000  Level FlightAware ADS-B
06:46PM 30.0741 -95.7481 231° Southwest 209 241 3,000  Level FlightAware ADS-B
06:46PM 30.0688 -95.7549 228° Southwest 208 239 3,000  Level FlightAware ADS-B
06:46PM 30.0652 -95.7585 221° Southwest 204 235 3,000  Level FlightAware ADS-B
06:46PM 30.0617 -95.7609 211° Southwest 202 232 3,000  Level FlightAware ADS-B
06:46PM 30.0588 -95.7622 201° Southwest 202 232 3,000  Level FlightAware ADS-B
06:46PM 30.0536 -95.7635 192° South 200 230 3,000  Level FlightAware ADS-B
06:46PM 30.0501 -95.7640 187° South 200 230 3,000  Level FlightAware ADS-B
06:47PM 30.0419 -95.7651 187° South 199 229 3,000  Level FlightAware ADS-B
06:47PM 30.0364 -95.7652 181° South 196 226 3,000  Level FlightAware ADS-B
06:47PM 30.0332 -95.7647 172° South 196 226 3,000  Level FlightAware ADS-B
06:47PM 30.0298 -95.7635 163° South 195 224 3,000  Level FlightAware ADS-B
06:47PM 30.0272 -95.7622 157° South 194 223 3,000  Level FlightAware ADS-B
06:47PM 30.0245 -95.7601 146° Southeast 194 223 3,000  Level FlightAware ADS-B
06:47PM 30.0221 -95.7576 138° Southeast 194 223 3,000  Level FlightAware ADS-B
06:47PM 30.0204 -95.7552 129° Southeast 196 226 3,000  Level FlightAware ADS-B
06:47PM 30.0189 -95.7523 121° Southeast 199 229 3,000  Level FlightAware ADS-B
06:47PM 30.0176 -95.7487 113° Southeast 205 236 3,000  Level FlightAware ADS-B
06:47PM 30.0168 -95.7455 106° East 208 239 3,000  Level FlightAware ADS-B
06:47PM 30.0140 -95.7321 104° East 212 244 3,000  Level FlightAware ADS-B
06:48PM 30.0113 -95.7200 104° East 212 244 3,000  Level FlightAware ADS-B
06:48PM 30.0090 -95.7063 101° East 212 244 3,000  Level FlightAware ADS-B
06:48PM 30.0072 -95.6945 100° East 207 238 3,000  Level FlightAware ADS-B
06:48PM 30.0066 -95.6896 98° East 206 237 3,000  Level FlightAware ADS-B
06:48PM 30.0060 -95.6818 95° East 203 234 3,000  Level FlightAware ADS-B
06:48PM 30.0058 -95.6731 92° East 201 231 3,000  Level FlightAware ADS-B
06:49PM 30.0061 -95.6570 89° East 199 229 3,000  Level FlightAware ADS-B
06:49PM 30.0066 -95.6409 88° East 196 226 3,000  Level FlightAware ADS-B
06:49PM 30.0069 -95.6253 89° East 192 221 3,000  Level FlightAware ADS-B
06:49PM 30.0069 -95.6102 90° East 182 209 3,000  Level FlightAware ADS-B
06:50PM 30.0069 -95.5958 90° East 178 205 3,000  Level FlightAware ADS-B
06:50PM 30.0068 -95.5816 90° East 178 205 3,000  Level FlightAware ADS-B
06:50PM 30.0068 -95.5672 90° East 178 205 3,000  Level FlightAware ADS-B
06:50PM 30.0068 -95.5538 90° East 176 203 3,000 -180 Level FlightAware ADS-B
06:51PM 30.0069 -95.5324 90° East 173 199 2,900 -480 Descending FlightAware ADS-B
06:51PM 30.0070 -95.5184 90° East 166 191 2,700 -660 Descending FlightAware ADS-B
06:51PM 30.0070 -95.5069 90° East 158 182 2,600 -660 Descending FlightAware ADS-B
06:51PM 30.0070 -95.4947 90° East 150 173 2,400 -840 Descending FlightAware ADS-B
06:52PM 30.0070 -95.4827 90° East 149 171 2,200 -780 Descending FlightAware ADS-B
06:52PM 30.0071 -95.4756 89° East 147 169 2,100 -660 Descending FlightAware ADS-B
06:52PM 30.0070 -95.4680 91° East 143 165 2,000 -960 Descending FlightAware ADS-B
06:52PM 30.0073 -95.4564 88° East 143 165 1,700 -900 Descending FlightAware ADS-B
06:52PM 30.0073 -95.4523 90° East 142 163 1,700 -540 Level FlightAware ADS-B
06:53PM 30.0072 -95.4383 90° East 141 162 1,500 -840 Descending FlightAware ADS-B
06:53PM 30.0071 -95.4301 91° East 147 169 1,300 -780 Descending FlightAware ADS-B
06:53PM 30.0071 -95.4200 90° East 146 168 1,200 -600 Descending FlightAware ADS-B
06:53PM 30.0072 -95.4138 89° East 145 167 1,100 -780 Descending FlightAware ADS-B
06:53PM 30.0072 -95.4073 90° East 145 167 1,000 -1,020 Descending FlightAware ADS-B
06:54PM 30.0072 -95.3956 90° East 143 165 700 -1,020 Descending FlightAware ADS-B
06:54PM 30.0071 -95.3893 91° East 140 161 600 -540 Descending FlightAware ADS-B
06:54PM 30.0072 -95.3778 89° East 137 158 500 -660 Descending FlightAware ADS-B
06:54PM 30.0071 -95.3685 91° East 142 163 300 -840 Descending FlightAware ADS-B
06:54PM 30.0071 -95.3608 90° East 142 163 200 -600 Descending FlightAware ADS-B